Time;durP1;ratioP1;P1;durP2;ratioP2;P2;SDS_P1;SDS_P2;PMS_P1;PMS_P2;Temp;Humidity;BMP_temperature;BMP_pressure;BME280_temperature;BME280_humidity;BME280_pressure;Samples;Min_cycle;Max_cycle;Signal;HPM_P1;HPM_P2
2022/12/06 00:01:23;;;;;;;0.70;0.70;;;3.60;99.90;;;;;;5081936;28;20422;-77
2022/12/06 00:03:53;;;;;;;0.63;0.63;;;3.60;99.90;;;;;;5078250;28;20427;-77
2022/12/06 00:06:22;;;;;;;3.00;0.47;;;3.60;99.90;;;;;;5091413;28;20437;-77
2022/12/06 00:08:49;;;;;;;0.40;0.40;;;3.60;99.90;;;;;;5095235;28;20439;-77
2022/12/06 00:11:24;;;;;;;0.60;0.60;;;3.70;99.90;;;;;;5073138;28;20434;-78
2022/12/06 00:14:04;;;;;;;0.40;0.40;;;3.70;99.90;;;;;;5079451;28;20446;-78
2022/12/06 00:16:32;;;;;;;0.40;0.40;;;3.60;99.90;;;;;;5072849;28;20497;-77
2022/12/06 00:18:59;;;;;;;0.70;0.70;;;3.60;99.90;;;;;;5079246;28;20439;-78
2022/12/06 00:21:31;;;;;;;0.30;0.30;;;3.60;99.90;;;;;;5089234;28;20418;-78
2022/12/06 00:24:10;;;;;;;0.30;0.30;;;3.60;99.90;;;;;;5088446;28;20512;-78
2022/12/06 00:26:40;;;;;;;0.40;0.40;;;3.60;99.90;;;;;;5072759;28;20427;-77
2022/12/06 00:29:09;;;;;;;0.22;0.22;;;3.60;99.90;;;;;;5092636;28;20436;-77
2022/12/06 00:31:36;;;;;;;0.50;0.50;;;3.60;99.90;;;;;;5081617;28;20431;-78
2022/12/06 00:34:03;;;;;;;1.30;0.30;;;3.60;99.90;;;;;;5082459;28;20499;-77
2022/12/06 00:36:32;;;;;;;1.10;0.50;;;3.60;99.90;;;;;;5080060;28;20435;-77
2022/12/06 00:39:02;;;;;;;0.52;0.52;;;3.60;1.00;;;;;;5082046;28;20427;-77
2022/12/06 00:41:35;;;;;;;0.68;0.68;;;3.50;99.90;;;;;;5086845;28;20455;-77
2022/12/06 00:44:02;;;;;;;0.50;0.50;;;3.50;99.90;;;;;;5075634;28;20484;-77
2022/12/06 00:46:31;;;;;;;0.50;0.50;;;3.50;99.90;;;;;;5085414;28;20427;-77
2022/12/06 00:49:00;;;;;;;0.40;0.40;;;3.50;99.90;;;;;;5081210;28;20503;-77
2022/12/06 00:51:29;;;;;;;0.40;0.40;;;3.50;99.90;;;;;;5077823;28;20480;-77
2022/12/06 00:53:57;;;;;;;0.68;0.68;;;3.50;99.90;;;;;;5077653;28;20427;-77
2022/12/06 00:56:24;;;;;;;0.30;0.30;;;3.50;99.90;;;;;;5089778;28;20430;-77
2022/12/06 00:58:51;;;;;;;0.40;0.40;;;3.50;99.90;;;;;;5081618;28;20453;-77
2022/12/06 01:01:22;;;;;;;0.60;0.60;;;3.50;99.90;;;;;;5089479;28;20433;-77
2022/12/06 01:03:52;;;;;;;0.50;0.50;;;3.40;99.90;;;;;;5079322;28;20434;-77
2022/12/06 01:06:22;;;;;;;0.50;0.40;;;3.50;99.90;;;;;;5086350;28;20489;-77
2022/12/06 01:08:49;;;;;;;0.68;0.45;;;3.50;99.90;;;;;;5075119;28;20435;-77
2022/12/06 01:11:17;;;;;;;0.30;0.30;;;3.50;99.90;;;;;;5085209;28;20456;-77
2022/12/06 01:13:43;;;;;;;0.38;0.38;;;3.50;99.90;;;;;;5080699;28;20519;-77
2022/12/06 01:16:16;;;;;;;0.47;0.47;;;3.50;99.90;;;;;;5082397;28;20460;-76
2022/12/06 01:18:45;;;;;;;0.30;0.30;;;3.50;99.90;;;;;;5084533;28;20429;-77
2022/12/06 01:21:17;;;;;;;0.45;0.45;;;3.60;99.90;;;;;;5072030;28;20427;-77
2022/12/06 01:23:45;;;;;;;0.50;0.50;;;3.60;99.90;;;;;;5075329;28;20765;-77
2022/12/06 01:26:16;;;;;;;0.40;0.40;;;3.60;99.90;;;;;;5087416;28;20429;-77
2022/12/06 01:28:43;;;;;;;0.30;0.30;;;3.60;99.90;;;;;;5085552;28;20434;-77
2022/12/06 01:31:11;;;;;;;0.20;0.20;;;3.60;99.90;;;;;;5088265;28;20433;-77
2022/12/06 01:33:38;;;;;;;0.43;0.43;;;3.60;99.90;;;;;;5084874;28;20426;-78
2022/12/06 01:36:05;;;;;;;0.35;0.35;;;3.60;99.90;;;;;;5083065;28;20434;-77
2022/12/06 01:38:32;;;;;;;0.55;0.55;;;3.60;99.90;;;;;;5080464;28;20431;-77
2022/12/06 01:40:59;;;;;;;0.30;0.30;;;3.60;99.90;;;;;;5087469;28;20422;-77
2022/12/06 01:43:41;;;;;;;0.30;0.30;;;3.60;99.90;;;;;;5091798;28;20455;-78
2022/12/06 01:46:25;;;;;;;0.38;0.38;;;3.60;99.90;;;;;;5082207;28;20446;-77
2022/12/06 01:49:04;;;;;;;0.65;0.65;;;3.60;99.90;;;;;;5079836;28;20427;-77
2022/12/06 01:51:31;;;;;;;0.52;0.52;;;3.60;99.90;;;;;;5083322;28;20435;-77
2022/12/06 01:54:00;;;;;;;0.55;0.55;;;3.50;99.90;;;;;;5079285;28;20438;-77
2022/12/06 01:56:27;;;;;;;1.05;0.43;;;3.50;99.90;;;;;;5085950;28;20435;-77
2022/12/06 01:58:56;;;;;;;0.40;0.40;;;3.60;99.90;;;;;;5084604;28;20489;-77
2022/12/06 02:01:26;;;;;;;0.40;0.40;;;3.50;99.90;;;;;;5080485;28;20421;-77
2022/12/06 02:03:55;;;;;;;0.90;0.60;;;3.50;99.90;;;;;;5082912;28;20912;-78
2022/12/06 02:06:22;;;;;;;0.50;0.50;;;3.40;99.90;;;;;;5089558;28;20436;-78
2022/12/06 02:08:53;;;;;;;0.60;0.60;;;3.40;99.90;;;;;;5087139;28;20770;-78
2022/12/06 02:11:23;;;;;;;0.20;0.20;;;3.40;99.90;;;;;;5074561;28;20437;-78
2022/12/06 02:13:50;;;;;;;0.25;0.25;;;3.40;99.90;;;;;;5075272;28;20936;-78
2022/12/06 02:16:38;;;;;;;0.20;0.20;;;3.30;99.90;;;;;;5094529;28;20478;-78
2022/12/06 02:19:41;;;;;;;0.22;0.22;;;3.30;99.90;;;;;;5080999;28;20451;-78
2022/12/06 02:22:35;;;;;;;0.70;0.60;;;3.30;99.90;;;;;;5085165;28;20475;-78
2022/12/06 02:25:46;;;;;;;0.40;0.40;;;3.30;99.90;;;;;;5083347;28;20437;-78
2022/12/06 02:28:37;;;;;;;0.30;0.30;;;3.30;99.90;;;;;;5056846;28;20454;-78
2022/12/06 02:31:04;;;;;;;0.75;0.22;;;3.30;99.90;;;;;;5081555;28;20920;-77
2022/12/06 02:34:11;;;;;;;0.90;0.60;;;3.30;99.90;;;;;;5089754;28;20426;-78
2022/12/06 02:37:08;;;;;;;0.25;0.25;;;3.30;99.90;;;;;;5074007;28;20427;-78
2022/12/06 02:40:00;;;;;;;0.30;0.30;;;3.30;99.90;;;;;;5076261;28;20427;-78
2022/12/06 02:42:38;;;;;;;0.32;0.32;;;3.30;99.90;;;;;;5086472;28;20420;-78
2022/12/06 02:45:20;;;;;;;0.30;0.30;;;3.30;99.90;;;;;;5090861;28;20422;-78
2022/12/06 02:47:48;;;;;;;0.47;0.47;;;3.30;99.90;;;;;;5075959;28;20432;-77
2022/12/06 02:50:24;;;;;;;0.60;0.60;;;3.30;99.90;;;;;;5087100;28;20433;-78
2022/12/06 02:52:53;;;;;;;0.35;0.35;;;3.30;99.90;;;;;;5088618;28;20467;-78
2022/12/06 02:55:22;;;;;;;0.68;0.45;;;3.30;99.90;;;;;;5075182;28;20438;-78
2022/12/06 02:57:52;;;;;;;0.60;0.40;;;3.30;99.90;;;;;;5080317;28;20475;-78
2022/12/06 03:00:37;;;;;;;0.50;0.50;;;3.20;99.90;;;;;;5079719;28;20762;-78
2022/12/06 03:03:18;;;;;;;0.37;0.37;;;3.20;99.90;;;;;;5075866;28;20518;-78
2022/12/06 03:06:11;;;;;;;0.77;0.70;;;3.20;99.90;;;;;;5079679;28;20808;-78
2022/12/06 03:09:01;;;;;;;1.40;1.17;;;3.20;99.90;;;;;;5085585;28;20437;-78
2022/12/06 03:11:58;;;;;;;0.85;0.65;;;3.30;99.90;;;;;;5094062;28;20434;-78
2022/12/06 03:14:30;;;;;;;0.30;0.30;;;3.30;99.90;;;;;;5085267;28;20487;-78
2022/12/06 03:17:15;;;;;;;0.35;0.35;;;3.30;99.90;;;;;;5082745;28;20423;-78
2022/12/06 03:19:47;;;;;;;0.90;0.40;;;3.30;99.90;;;;;;5087823;28;20440;-78
2022/12/06 03:22:21;;;;;;;0.25;0.25;;;3.30;99.90;;;;;;5083377;28;20798;-78
2022/12/06 03:24:50;;;;;;;0.68;0.47;;;3.20;99.90;;;;;;5075442;28;20503;-78
2022/12/06 03:27:19;;;;;;;0.45;0.45;;;3.30;99.90;;;;;;5083905;28;20426;-78
2022/12/06 03:30:11;;;;;;;0.40;0.40;;;3.30;99.90;;;;;;5091935;28;20436;-78
2022/12/06 03:32:43;;;;;;;0.50;0.50;;;3.20;99.90;;;;;;5080346;28;20507;-78
2022/12/06 03:35:13;;;;;;;0.30;0.30;;;3.20;99.90;;;;;;5089728;28;20438;-78
2022/12/06 03:37:45;;;;;;;0.33;0.33;;;3.20;99.90;;;;;;5085405;28;20426;-78
2022/12/06 03:40:22;;;;;;;0.30;0.30;;;3.20;99.90;;;;;;5088681;28;20423;-77
2022/12/06 03:42:49;;;;;;;2.00;0.80;;;3.20;99.90;;;;;;5082748;28;20453;-79
2022/12/06 03:45:16;;;;;;;0.28;0.28;;;3.10;99.90;;;;;;5087510;28;20442;-79
2022/12/06 03:48:00;;;;;;;0.50;0.30;;;3.20;99.90;;;;;;5081142;28;20882;-79
2022/12/06 03:50:40;;;;;;;0.35;0.35;;;3.10;99.90;;;;;;5076305;28;20436;-79
2022/12/06 03:53:07;;;;;;;0.50;0.38;;;3.10;99.90;;;;;;5086222;28;20425;-78
2022/12/06 03:55:44;;;;;;;0.30;0.30;;;3.10;99.90;;;;;;5082426;28;20509;-78
2022/12/06 03:58:11;;;;;;;0.40;0.40;;;3.10;99.90;;;;;;5082026;28;20443;-78
2022/12/06 04:00:38;;;;;;;0.40;0.30;;;3.10;99.90;;;;;;5081659;28;20501;-79
2022/12/06 04:03:04;;;;;;;0.50;0.35;;;3.10;99.90;;;;;;5076471;28;20921;-78
2022/12/06 04:05:31;;;;;;;0.90;0.50;;;3.00;99.90;;;;;;5075912;28;20431;-78
2022/12/06 04:08:00;;;;;;;0.40;0.40;;;3.10;99.90;;;;;;5081079;28;20837;-78
2022/12/06 04:10:30;;;;;;;0.30;0.30;;;3.10;99.90;;;;;;5075622;28;20987;-78
2022/12/06 04:13:00;;;;;;;0.25;0.25;;;3.10;99.90;;;;;;5081994;28;20430;-78
2022/12/06 04:15:33;;;;;;;0.35;0.35;;;3.10;99.90;;;;;;5073482;28;20427;-78
2022/12/06 04:18:10;;;;;;;0.30;0.30;;;3.10;99.90;;;;;;5077502;28;20428;-78
2022/12/06 04:23:41;;;;;;;0.50;0.50;;;3.00;99.90;;;;;;5079154;28;20426;-78
2022/12/06 04:26:10;;;;;;;0.60;0.50;;;3.00;99.90;;;;;;5086794;28;20476;-78
2022/12/06 04:39:46;;;;;;;0.50;0.40;;;2.80;99.90;;;;;;5088501;28;20438;-78
2022/12/06 04:45:03;;;;;;;0.40;0.40;;;2.80;99.90;;;;;;5090567;28;20425;-78
2022/12/06 04:47:30;;;;;;;0.20;0.20;;;2.80;99.90;;;;;;5083426;28;20850;-78
2022/12/06 04:49:57;;;;;;;0.85;0.85;;;2.90;99.90;;;;;;5089462;28;20422;-78
2022/12/06 04:52:25;;;;;;;0.30;0.30;;;2.80;99.90;;;;;;5082696;28;20806;-78
2022/12/06 04:54:57;;;;;;;0.35;0.35;;;2.90;99.90;;;;;;5075296;28;20435;-78
2022/12/06 04:57:23;;;;;;;0.40;0.40;;;2.90;99.90;;;;;;5084276;28;20435;-78
2022/12/06 04:59:52;;;;;;;0.40;0.40;;;2.90;99.90;;;;;;5079276;28;20510;-78
2022/12/06 05:02:19;;;;;;;0.68;0.68;;;2.90;99.90;;;;;;5082318;28;20434;-79
2022/12/06 05:04:45;;;;;;;0.70;0.70;;;2.80;99.90;;;;;;5083998;28;21022;-78
2022/12/06 05:07:12;;;;;;;0.30;0.30;;;2.80;99.90;;;;;;5086733;28;20417;-78
2022/12/06 05:09:40;;;;;;;0.32;0.32;;;2.70;99.90;;;;;;5071658;28;20451;-78
2022/12/06 05:12:07;;;;;;;0.60;0.60;;;2.70;99.90;;;;;;5075888;28;20476;-78
2022/12/06 05:14:33;;;;;;;0.30;0.30;;;2.70;99.90;;;;;;5088856;28;20745;-79
2022/12/06 05:17:00;;;;;;;0.40;0.40;;;2.80;99.90;;;;;;5088941;28;20437;-79
2022/12/06 05:19:27;;;;;;;0.55;0.55;;;2.70;99.90;;;;;;5081448;28;20907;-78
2022/12/06 05:21:54;;;;;;;0.40;0.40;;;2.70;99.90;;;;;;5079072;28;21112;-78
2022/12/06 05:24:27;;;;;;;0.55;0.55;;;2.70;99.90;;;;;;5080862;28;20604;-78
2022/12/06 05:26:54;;;;;;;0.50;0.50;;;2.70;99.90;;;;;;5090356;28;20430;-78
2022/12/06 05:29:23;;;;;;;0.35;0.35;;;2.70;31.30;;;;;;5085719;28;20426;-79
2022/12/06 05:31:49;;;;;;;0.20;0.20;;;2.80;99.00;;;;;;5090480;28;20429;-78
2022/12/06 05:34:16;;;;;;;0.47;0.47;;;2.80;99.90;;;;;;5079289;28;20426;-78
2022/12/06 05:36:44;;;;;;;0.50;0.50;;;2.80;99.90;;;;;;5085353;28;20956;-79
2022/12/06 05:39:11;;;;;;;0.22;0.22;;;2.80;99.90;;;;;;5076836;28;20481;-79
2022/12/06 05:41:38;;;;;;;0.50;0.28;;;2.80;99.90;;;;;;5089603;28;20471;-78
2022/12/06 05:44:04;;;;;;;0.30;0.30;;;2.80;99.90;;;;;;5083498;28;20920;-79
2022/12/06 05:46:31;;;;;;;0.55;0.55;;;2.80;99.90;;;;;;5080587;28;20491;-78
2022/12/06 05:49:00;;;;;;;0.93;0.40;;;2.80;99.90;;;;;;5081508;28;20431;-78
2022/12/06 05:51:27;;;;;;;0.50;0.50;;;2.80;99.90;;;;;;5091515;28;20437;-78
2022/12/06 05:53:54;;;;;;;2.28;0.63;;;2.80;63.40;;;;;;5082628;28;20435;-78
2022/12/06 05:56:21;;;;;;;0.30;0.30;;;2.70;1.00;;;;;;5083471;28;20436;-78
2022/12/06 05:58:47;;;;;;;1.17;0.68;;;2.60;99.90;;;;;;5088122;28;20429;-78
2022/12/06 06:01:14;;;;;;;0.60;0.60;;;2.60;31.20;;;;;;5077272;28;20432;-78
2022/12/06 06:03:45;;;;;;;0.40;0.40;;;2.60;1.00;;;;;;5076419;28;20460;-78
2022/12/06 06:06:16;;;;;;;0.85;0.45;;;2.60;67.20;;;;;;5071026;28;20438;-78
2022/12/06 06:08:43;;;;;;;0.60;0.60;;;2.60;99.90;;;;;;5096106;28;20467;-78
2022/12/06 06:11:12;;;;;;;0.60;0.60;;;2.60;99.90;;;;;;5094641;28;20431;-78
2022/12/06 06:13:39;;;;;;;0.70;0.70;;;2.60;99.90;;;;;;5071418;28;20736;-78
2022/12/06 06:16:06;;;;;;;0.80;0.70;;;2.50;99.90;;;;;;5071113;28;20428;-78
2022/12/06 06:18:35;;;;;;;0.40;0.40;;;2.60;99.90;;;;;;5083575;28;20512;-76
2022/12/06 06:21:03;;;;;;;2.15;0.70;;;2.50;99.90;;;;;;5087999;28;20520;-76
2022/12/06 06:23:29;;;;;;;0.40;0.40;;;2.50;99.90;;;;;;5069218;28;20416;-76
2022/12/06 06:25:56;;;;;;;0.50;0.50;;;2.50;99.90;;;;;;5092722;28;20482;-75
2022/12/06 06:28:23;;;;;;;0.75;0.75;;;2.50;1.00;;;;;;5087464;28;20440;-76
2022/12/06 06:30:50;;;;;;;0.63;0.60;;;2.50;1.00;;;;;;5074971;28;20995;-76
2022/12/06 06:33:17;;;;;;;0.77;0.77;;;2.50;1.00;;;;;;5093754;28;20431;-76
2022/12/06 06:35:44;;;;;;;0.40;0.40;;;2.50;1.00;;;;;;5078114;28;20461;-76
2022/12/06 06:38:11;;;;;;;0.40;0.40;;;2.50;1.00;;;;;;5086607;28;20479;-77
2022/12/06 06:40:38;;;;;;;1.65;0.65;;;2.50;1.00;;;;;;5074181;28;20431;-76
2022/12/06 06:43:17;;;;;;;1.05;0.60;;;2.50;1.00;;;;;;5086870;28;20903;-76
2022/12/06 06:45:55;;;;;;;0.38;0.38;;;2.60;1.00;;;;;;5075362;28;20434;-76
2022/12/06 06:48:23;;;;;;;0.60;0.60;;;2.60;90.80;;;;;;5101715;28;20424;-76
2022/12/06 06:50:50;;;;;;;0.60;0.60;;;2.60;99.90;;;;;;5080738;28;20431;-76
2022/12/06 06:53:26;;;;;;;0.50;0.50;;;2.60;85.80;;;;;;5074482;28;20435;-76
2022/12/06 06:55:54;;;;;;;0.40;0.40;;;2.70;22.60;;;;;;5082031;28;20437;-76
2022/12/06 06:58:21;;;;;;;0.50;0.50;;;2.70;1.00;;;;;;5089762;28;20430;-76
2022/12/06 07:00:56;;;;;;;0.73;0.73;;;2.70;1.00;;;;;;5090766;28;20425;-76
2022/12/06 07:03:24;;;;;;;1.00;1.00;;;2.70;1.00;;;;;;5086273;28;20460;-76
2022/12/06 07:06:03;;;;;;;0.65;0.63;;;2.80;99.90;;;;;;5083619;28;20422;-76
2022/12/06 07:08:31;;;;;;;0.60;0.60;;;2.80;99.90;;;;;;5081050;28;20835;-76
2022/12/06 07:10:58;;;;;;;0.60;0.60;;;2.80;99.90;;;;;;5074302;28;20804;-75
2022/12/06 07:13:26;;;;;;;0.40;0.40;;;2.80;1.00;;;;;;5071795;28;20945;-76
2022/12/06 07:15:53;;;;;;;0.45;0.45;;;2.80;99.90;;;;;;5074889;28;20450;-76
2022/12/06 07:18:20;;;;;;;0.80;0.80;;;2.80;99.90;;;;;;5082037;28;20904;-76
2022/12/06 07:20:48;;;;;;;1.40;0.60;;;2.80;99.90;;;;;;5070177;28;20972;-76
2022/12/06 07:23:15;;;;;;;0.80;0.60;;;2.80;99.90;;;;;;5084613;28;20425;-76
2022/12/06 07:25:42;;;;;;;0.80;0.80;;;2.80;99.90;;;;;;5083542;28;20428;-76
2022/12/06 07:28:08;;;;;;;0.63;0.63;;;2.80;99.90;;;;;;5070928;28;20760;-76
2022/12/06 07:30:37;;;;;;;0.70;0.50;;;2.80;99.90;;;;;;5069984;28;20424;-76
2022/12/06 07:33:04;;;;;;;0.50;0.50;;;2.80;99.90;;;;;;5077733;28;20478;-76
2022/12/06 07:35:31;;;;;;;0.47;0.47;;;2.80;99.90;;;;;;5073457;28;20431;-76
2022/12/06 07:38:18;;;;;;;0.60;0.60;;;2.80;99.90;;;;;;5080561;28;20422;-76
2022/12/06 07:40:45;;;;;;;0.70;0.70;;;2.80;99.90;;;;;;5074301;28;20942;-76
2022/12/06 07:46:15;;;;;;;0.77;0.77;;;2.80;99.90;;;;;;5088350;28;20896;-76
2022/12/06 07:48:42;;;;;;;0.70;0.70;;;2.80;99.90;;;;;;5084911;28;20551;-76
2022/12/06 07:51:09;;;;;;;0.50;0.50;;;2.90;99.90;;;;;;5080507;28;20504;-76
2022/12/06 07:53:37;;;;;;;0.80;0.80;;;2.80;99.90;;;;;;5078451;28;20465;-76
2022/12/06 07:56:06;;;;;;;0.75;0.60;;;2.90;99.90;;;;;;5081798;28;20435;-76
2022/12/06 07:58:35;;;;;;;0.55;0.55;;;2.90;99.90;;;;;;5081177;28;20429;-76
2022/12/06 08:01:03;;;;;;;1.42;0.50;;;2.90;99.90;;;;;;5090866;28;20424;-76
2022/12/06 08:03:33;;;;;;;0.67;0.67;;;2.90;99.90;;;;;;5081992;28;20455;-76
2022/12/06 08:06:00;;;;;;;0.50;0.50;;;2.80;99.90;;;;;;5085242;28;20510;-76
2022/12/06 08:08:27;;;;;;;0.40;0.40;;;2.80;99.90;;;;;;5090536;28;20430;-76
2022/12/06 08:11:04;;;;;;;0.67;0.67;;;2.80;99.90;;;;;;5089855;28;20457;-76
2022/12/06 08:13:31;;;;;;;1.23;0.63;;;2.80;99.90;;;;;;5090305;28;20428;-76
2022/12/06 08:16:11;;;;;;;0.70;0.68;;;2.80;99.90;;;;;;5085324;28;20455;-76
2022/12/06 08:18:39;;;;;;;1.60;0.47;;;2.80;99.90;;;;;;5089075;28;20428;-75
2022/12/06 08:21:07;;;;;;;0.32;0.32;;;2.80;99.90;;;;;;5086017;28;20920;-76
2022/12/06 08:23:34;;;;;;;0.85;0.60;;;2.80;99.90;;;;;;5086356;28;20922;-76
2022/12/06 08:26:05;;;;;;;0.50;0.43;;;2.80;99.90;;;;;;5075797;28;20899;-76
2022/12/06 08:28:33;;;;;;;0.70;0.70;;;2.80;99.90;;;;;;5087229;28;20435;-76
2022/12/06 08:31:09;;;;;;;0.93;0.63;;;2.90;99.90;;;;;;5087631;28;20426;-76
2022/12/06 08:33:36;;;;;;;0.93;0.65;;;2.90;99.90;;;;;;5080284;28;21194;-76
2022/12/06 08:36:08;;;;;;;2.70;1.25;;;3.00;99.90;;;;;;5080902;28;20451;-76
2022/12/06 08:38:36;;;;;;;0.33;0.33;;;3.00;99.90;;;;;;5087210;28;20475;-76
2022/12/06 08:41:04;;;;;;;0.40;0.30;;;3.10;1.00;;;;;;5076064;28;20439;-76
2022/12/06 08:43:31;;;;;;;0.30;0.30;;;3.10;1.00;;;;;;5080654;28;20426;-75
2022/12/06 08:45:58;;;;;;;0.65;0.50;;;3.10;1.00;;;;;;5091677;28;20458;-76
2022/12/06 08:48:26;;;;;;;0.55;0.40;;;3.20;37.50;;;;;;5085872;28;20422;-76
2022/12/06 08:50:52;;;;;;;0.57;0.57;;;3.20;1.00;;;;;;5090461;28;20426;-76
2022/12/06 08:53:19;;;;;;;0.68;0.65;;;3.10;99.90;;;;;;5092099;28;20429;-76
2022/12/06 08:55:54;;;;;;;0.65;0.65;;;3.20;99.90;;;;;;5087301;28;20429;-68
2022/12/06 08:58:28;;;;;;;0.43;0.43;;;3.20;99.90;;;;;;5069220;28;20518;-68
2022/12/06 09:00:57;;;;;;;0.55;0.50;;;3.30;99.90;;;;;;5071226;28;20431;-69
2022/12/06 09:03:25;;;;;;;0.57;0.57;;;3.40;1.00;;;;;;5081339;28;20422;-68
2022/12/06 09:05:52;;;;;;;0.70;0.70;;;3.50;1.00;;;;;;5079933;28;20429;-68
2022/12/06 09:08:21;;;;;;;0.38;0.38;;;3.60;99.90;;;;;;5084199;28;21014;-69
2022/12/06 09:10:48;;;;;;;0.55;0.55;;;3.70;1.00;;;;;;5076972;28;20436;-69
2022/12/06 09:13:18;;;;;;;0.83;0.83;;;3.70;99.90;;;;;;5064659;28;20548;-69
2022/12/06 09:15:44;;;;;;;0.57;0.57;;;3.70;99.90;;;;;;5076867;28;20439;-69
2022/12/06 09:18:11;;;;;;;0.70;0.70;;;3.80;99.90;;;;;;5081486;28;20441;-69
2022/12/06 09:20:40;;;;;;;0.50;0.50;;;3.80;99.90;;;;;;5080840;28;21018;-69
2022/12/06 09:23:06;;;;;;;0.45;0.45;;;3.80;99.90;;;;;;5077541;28;20433;-69
2022/12/06 09:25:33;;;;;;;0.70;0.70;;;3.80;99.90;;;;;;5074130;28;20430;-69
2022/12/06 09:28:01;;;;;;;1.30;0.60;;;3.80;99.90;;;;;;5077463;28;20429;-69
2022/12/06 09:30:31;;;;;;;0.80;0.80;;;3.90;99.90;;;;;;5080084;28;20441;-69
2022/12/06 09:33:09;;;;;;;0.68;0.68;;;3.90;99.90;;;;;;5079069;28;20434;-74
2022/12/06 09:35:36;;;;;;;0.50;0.50;;;4.00;99.90;;;;;;5077111;28;20436;-64
2022/12/06 09:38:03;;;;;;;0.80;0.80;;;4.20;99.90;;;;;;5077917;28;20433;-70
2022/12/06 09:40:34;;;;;;;0.85;0.85;;;4.30;99.90;;;;;;5087259;28;20900;-67
2022/12/06 09:43:11;;;;;;;0.40;0.32;;;4.50;99.90;;;;;;5081132;28;20447;-67
2022/12/06 09:45:37;;;;;;;0.60;0.60;;;4.50;99.90;;;;;;5077360;28;20454;-67
2022/12/06 09:48:26;;;;;;;1.33;0.63;;;4.60;99.90;;;;;;5074703;28;20430;-67
2022/12/06 09:51:23;;;;;;;0.68;0.63;;;4.70;99.90;;;;;;5076418;28;20438;-67
2022/12/06 09:53:56;;;;;;;0.60;0.60;;;4.70;99.90;;;;;;5074502;28;20439;-67
2022/12/06 09:56:34;;;;;;;0.60;0.60;;;4.70;99.90;;;;;;5075339;28;20942;-68
2022/12/06 09:59:11;;;;;;;0.90;0.60;;;4.80;99.90;;;;;;5079072;28;20434;-69
2022/12/06 10:02:02;;;;;;;0.70;0.60;;;4.80;99.90;;;;;;5078734;28;20429;-69
2022/12/06 10:04:47;;;;;;;0.60;0.38;;;4.90;99.90;;;;;;5085696;28;20430;-69
2022/12/06 10:07:28;;;;;;;0.50;0.50;;;4.90;99.90;;;;;;5087788;28;20426;-69
2022/12/06 10:10:10;;;;;;;0.80;0.52;;;5.00;99.90;;;;;;5075748;28;20515;-69
2022/12/06 10:12:54;;;;;;;0.50;0.50;;;5.00;99.90;;;;;;5068903;28;20438;-69
2022/12/06 10:15:23;;;;;;;0.43;0.43;;;5.00;99.90;;;;;;5078593;28;20434;-69
2022/12/06 10:18:26;;;;;;;0.63;0.60;;;5.00;99.90;;;;;;5089658;28;20427;-70
2022/12/06 10:21:23;;;;;;;0.40;0.40;;;5.00;99.90;;;;;;5047025;28;20443;-69
2022/12/06 10:23:59;;;;;;;0.77;0.77;;;5.10;99.90;;;;;;5032781;28;20435;-69
2022/12/06 10:26:43;;;;;;;0.80;0.80;;;5.10;99.90;;;;;;5059662;28;20429;-69
2022/12/06 10:29:15;;;;;;;1.60;0.80;;;5.10;99.90;;;;;;5055293;28;20810;-69
2022/12/06 10:31:47;;;;;;;0.40;0.40;;;5.20;99.90;;;;;;5057580;28;20432;-69
2022/12/06 10:34:40;;;;;;;0.80;0.80;;;5.40;99.90;;;;;;5054887;28;20426;-69
2022/12/06 10:37:35;;;;;;;0.50;0.50;;;5.40;99.90;;;;;;5043889;28;20445;-69
2022/12/06 10:40:22;;;;;;;0.60;0.60;;;5.40;99.90;;;;;;5062143;28;20423;-69
2022/12/06 10:42:57;;;;;;;1.50;0.75;;;5.40;99.90;;;;;;5061217;28;20427;-69
2022/12/06 10:48:34;;;;;;;0.50;0.50;;;5.60;99.90;;;;;;5057926;28;20423;-69
2022/12/06 10:51:11;;;;;;;2.10;0.90;;;5.70;99.90;;;;;;5058157;28;20419;-69
2022/12/06 10:53:44;;;;;;;0.50;0.50;;;5.70;99.90;;;;;;5059943;28;20523;-69
2022/12/06 10:56:27;;;;;;;1.23;0.70;;;5.70;99.90;;;;;;5057095;28;20434;-69
2022/12/06 10:58:59;;;;;;;0.50;0.50;;;5.70;99.90;;;;;;5085072;28;20452;-69
2022/12/06 11:01:37;;;;;;;0.55;0.55;;;5.70;99.90;;;;;;5074600;28;20430;-69
2022/12/06 11:04:15;;;;;;;0.80;0.43;;;5.80;99.90;;;;;;5074931;28;20541;-69
2022/12/06 11:06:52;;;;;;;1.00;0.70;;;6.00;99.90;;;;;;5080890;28;20517;-69
2022/12/06 11:09:50;;;;;;;0.50;0.50;;;6.10;99.90;;;;;;5074175;28;20423;-70
2022/12/06 11:12:24;;;;;;;0.40;0.40;;;6.10;99.90;;;;;;5081328;28;20433;-69
2022/12/06 11:15:21;;;;;;;0.60;0.60;;;6.20;99.90;;;;;;5083890;28;20426;-69
2022/12/06 11:17:57;;;;;;;0.60;0.60;;;6.20;99.90;;;;;;5080845;28;20998;-69
2022/12/06 11:20:37;;;;;;;0.40;0.40;;;6.10;99.90;;;;;;5080481;28;20432;-69
2022/12/06 11:23:34;;;;;;;0.47;0.47;;;6.10;99.90;;;;;;5081984;28;20426;-69
2022/12/06 11:26:29;;;;;;;0.40;0.40;;;6.00;99.90;;;;;;5078826;28;20893;-70
2022/12/06 11:29:04;;;;;;;0.55;0.55;;;5.90;99.90;;;;;;5068645;28;20513;-67
2022/12/06 11:31:48;;;;;;;0.80;0.80;;;6.00;99.90;;;;;;5078741;28;20481;-68
2022/12/06 11:34:30;;;;;;;0.40;0.40;;;6.10;99.90;;;;;;5076308;28;20427;-69
2022/12/06 11:36:58;;;;;;;0.50;0.50;;;6.30;99.90;;;;;;5080818;28;20430;-68
2022/12/06 11:39:28;;;;;;;0.30;0.30;;;6.50;99.90;;;;;;5076878;28;20424;-69
2022/12/06 11:41:58;;;;;;;0.52;0.52;;;6.60;99.90;;;;;;5074532;28;20438;-68
2022/12/06 11:44:28;;;;;;;0.87;0.87;;;6.50;99.90;;;;;;5078700;28;20518;-68
2022/12/06 11:46:59;;;;;;;1.50;1.05;;;6.30;99.90;;;;;;5073495;28;20841;-69
2022/12/06 11:49:41;;;;;;;0.80;0.63;;;6.40;99.90;;;;;;5086945;28;20424;-69
2022/12/06 11:52:21;;;;;;;0.50;0.50;;;6.30;99.90;;;;;;5079630;28;20514;-68
2022/12/06 11:54:56;;;;;;;0.32;0.30;;;6.40;99.90;;;;;;5088476;28;20434;-69
2022/12/06 11:57:28;;;;;;;0.73;0.73;;;6.50;99.90;;;;;;5089864;28;20808;-69
2022/12/06 12:00:18;;;;;;;0.50;0.50;;;6.50;99.90;;;;;;5076488;28;20441;-69
2022/12/06 12:02:47;;;;;;;0.30;0.30;;;6.30;99.90;;;;;;5075087;28;20437;-69
2022/12/06 12:05:16;;;;;;;0.40;0.40;;;6.30;99.90;;;;;;5083987;28;20469;-69
2022/12/06 12:07:47;;;;;;;0.40;0.40;;;6.30;99.90;;;;;;5088099;28;20440;-69
2022/12/06 12:10:38;;;;;;;0.40;0.40;;;6.30;99.90;;;;;;5085625;28;20516;-69
2022/12/06 12:15:59;;;;;;;0.55;0.55;;;6.20;99.90;;;;;;5083556;28;20866;-69
2022/12/06 12:18:38;;;;;;;0.65;0.65;;;6.30;99.90;;;;;;5082755;28;20972;-69
2022/12/06 12:21:06;;;;;;;1.23;0.65;;;6.30;99.90;;;;;;5090918;28;20437;-69
2022/12/06 12:23:44;;;;;;;0.60;0.60;;;6.30;99.90;;;;;;5088678;28;20979;-69
2022/12/06 12:26:15;;;;;;;0.73;0.73;;;6.30;99.90;;;;;;5084779;28;20460;-69
2022/12/06 12:29:03;;;;;;;0.47;0.47;;;6.30;99.90;;;;;;5084867;28;20430;-69
2022/12/06 12:31:30;;;;;;;0.43;0.43;;;6.40;99.90;;;;;;5086513;28;20930;-69
2022/12/06 12:34:16;;;;;;;0.77;0.77;;;6.50;99.90;;;;;;5080598;28;20435;-68
2022/12/06 12:36:49;;;;;;;0.50;0.50;;;6.60;99.90;;;;;;5081060;28;20432;-69
2022/12/06 12:39:26;;;;;;;0.50;0.50;;;6.70;99.90;;;;;;5085039;28;20429;-69
2022/12/06 12:41:55;;;;;;;0.40;0.40;;;6.70;99.90;;;;;;5072789;28;20426;-69
2022/12/06 12:44:28;;;;;;;0.50;0.50;;;6.80;99.90;;;;;;5078482;28;20509;-69
2022/12/06 12:47:16;;;;;;;1.90;0.70;;;6.80;99.90;;;;;;5078558;28;20987;-69
2022/12/06 12:49:42;;;;;;;0.68;0.68;;;6.90;99.90;;;;;;5080131;28;20896;-69
2022/12/06 12:52:37;;;;;;;0.35;0.35;;;7.00;99.90;;;;;;5070904;28;20423;-69
2022/12/06 12:55:18;;;;;;;0.30;0.30;;;7.10;99.90;;;;;;5082726;28;20512;-69
2022/12/06 12:57:48;;;;;;;0.40;0.40;;;7.00;99.90;;;;;;5073026;28;20432;-69
2022/12/06 13:00:18;;;;;;;0.50;0.50;;;6.90;99.90;;;;;;5084536;28;20456;-68
2022/12/06 13:02:55;;;;;;;0.75;0.75;;;6.80;99.90;;;;;;5073953;28;20960;-68
2022/12/06 13:05:30;;;;;;;0.63;0.63;;;6.70;99.90;;;;;;5072746;28;21007;-69
2022/12/06 13:08:17;;;;;;;0.55;0.55;;;6.70;99.90;;;;;;5072834;28;20422;-68
2022/12/06 13:10:48;;;;;;;0.80;0.80;;;6.60;99.90;;;;;;5079937;28;20429;-68
2022/12/06 13:13:29;;;;;;;0.63;0.63;;;6.50;99.90;;;;;;5077621;28;21210;-68
2022/12/06 13:15:58;;;;;;;0.52;0.52;;;6.40;99.90;;;;;;5084063;28;20460;-69
2022/12/06 13:18:46;;;;;;;0.50;0.50;;;6.40;99.90;;;;;;5075180;28;20501;-69
2022/12/06 13:21:24;;;;;;;1.38;0.75;;;6.40;99.90;;;;;;5073859;28;20583;-69
2022/12/06 13:24:04;;;;;;;0.50;0.50;;;6.40;99.90;;;;;;5077254;28;20433;-68
2022/12/06 13:26:37;;;;;;;0.50;0.50;;;6.30;99.90;;;;;;5079477;28;20466;-68
2022/12/06 13:29:37;;;;;;;0.60;0.60;;;6.30;99.90;;;;;;5075216;28;20432;-69
2022/12/06 13:32:21;;;;;;;0.57;0.57;;;6.20;99.90;;;;;;5070374;28;20419;-68
2022/12/06 13:35:05;;;;;;;0.47;0.47;;;6.30;99.90;;;;;;5079779;28;20426;-68
2022/12/06 13:37:42;;;;;;;0.60;0.50;;;6.20;99.90;;;;;;5080125;28;20434;-68
2022/12/06 13:40:31;;;;;;;0.60;0.60;;;6.20;99.90;;;;;;5085379;28;20561;-68
2022/12/06 13:43:26;;;;;;;0.90;0.80;;;6.10;99.90;;;;;;5064187;28;20436;-69
2022/12/06 13:46:14;;;;;;;0.68;0.68;;;6.00;99.90;;;;;;5074112;28;20420;-68
2022/12/06 13:48:55;;;;;;;0.65;0.65;;;5.90;99.90;;;;;;5071051;28;20427;-68
2022/12/06 13:51:31;;;;;;;0.50;0.50;;;5.90;99.90;;;;;;5071560;28;20483;-68
2022/12/06 13:54:04;;;;;;;0.60;0.60;;;5.90;99.90;;;;;;5067081;28;20431;-68
2022/12/06 13:56:33;;;;;;;0.63;0.63;;;5.90;99.90;;;;;;5072074;28;20867;-69